sensor_id;sensor_type;location;lat;lon;timestamp;temperature;humidity
66568;DHT22;53422;49.296;6.900;2022-08-21T00:01:06;21.20;53.00
66568;DHT22;53422;49.296;6.900;2022-08-21T00:03:35;21.20;54.00
66568;DHT22;53422;49.296;6.900;2022-08-21T00:06:01;21.10;53.00
66568;DHT22;53422;49.296;6.900;2022-08-21T00:08:26;21.10;53.20
66568;DHT22;53422;49.296;6.900;2022-08-21T00:10:52;21.10;53.30
66568;DHT22;53422;49.296;6.900;2022-08-21T00:13:18;21.10;54.40
66568;DHT22;53422;49.296;6.900;2022-08-21T00:15:45;21.10;53.70
66568;DHT22;53422;49.296;6.900;2022-08-21T00:18:11;21.10;53.70
66568;DHT22;53422;49.296;6.900;2022-08-21T00:20:38;21.00;53.80
66568;DHT22;53422;49.296;6.900;2022-08-21T00:23:05;21.00;53.70
66568;DHT22;53422;49.296;6.900;2022-08-21T00:25:32;21.00;53.70
66568;DHT22;53422;49.296;6.900;2022-08-21T00:27:58;21.00;53.70
66568;DHT22;53422;49.296;6.900;2022-08-21T00:30:25;21.00;53.70
66568;DHT22;53422;49.296;6.900;2022-08-21T00:32:52;20.90;53.70
66568;DHT22;53422;49.296;6.900;2022-08-21T00:35:21;20.90;53.80
66568;DHT22;53422;49.296;6.900;2022-08-21T00:37:47;20.90;54.10
66568;DHT22;53422;49.296;6.900;2022-08-21T00:40:16;20.90;54.20
66568;DHT22;53422;49.296;6.900;2022-08-21T00:42:43;20.90;55.20
66568;DHT22;53422;49.296;6.900;2022-08-21T00:45:13;20.90;54.30
66568;DHT22;53422;49.296;6.900;2022-08-21T00:47:39;20.80;54.30
66568;DHT22;53422;49.296;6.900;2022-08-21T00:50:08;20.80;54.40
66568;DHT22;53422;49.296;6.900;2022-08-21T00:52:36;20.80;54.50
66568;DHT22;53422;49.296;6.900;2022-08-21T00:55:04;20.80;54.60
66568;DHT22;53422;49.296;6.900;2022-08-21T00:57:35;20.80;54.70
66568;DHT22;53422;49.296;6.900;2022-08-21T01:00:06;20.70;55.60
66568;DHT22;53422;49.296;6.900;2022-08-21T01:02:32;20.70;54.80
66568;DHT22;53422;49.296;6.900;2022-08-21T01:04:58;20.70;54.80
66568;DHT22;53422;49.296;6.900;2022-08-21T01:07:24;20.70;54.90
66568;DHT22;53422;49.296;6.900;2022-08-21T01:09:50;20.60;54.80
66568;DHT22;53422;49.296;6.900;2022-08-21T01:12:17;20.60;54.90
66568;DHT22;53422;49.296;6.900;2022-08-21T01:14:44;20.60;54.80
66568;DHT22;53422;49.296;6.900;2022-08-21T01:17:11;20.60;55.00
66568;DHT22;53422;49.296;6.900;2022-08-21T01:19:39;20.60;55.10
66568;DHT22;53422;49.296;6.900;2022-08-21T01:22:05;20.60;55.10
66568;DHT22;53422;49.296;6.900;2022-08-21T01:24:30;20.60;55.10
66568;DHT22;53422;49.296;6.900;2022-08-21T01:26:58;20.50;55.10
66568;DHT22;53422;49.296;6.900;2022-08-21T01:31:52;20.50;55.10
66568;DHT22;53422;49.296;6.900;2022-08-21T01:34:18;20.50;55.10
66568;DHT22;53422;49.296;6.900;2022-08-21T01:36:46;20.50;55.10
66568;DHT22;53422;49.296;6.900;2022-08-21T01:39:12;20.50;55.30
66568;DHT22;53422;49.296;6.900;2022-08-21T01:41:38;20.50;55.30
66568;DHT22;53422;49.296;6.900;2022-08-21T01:44:04;20.50;55.80
66568;DHT22;53422;49.296;6.900;2022-08-21T01:46:30;20.40;55.40
66568;DHT22;53422;49.296;6.900;2022-08-21T01:48:55;20.40;55.70
66568;DHT22;53422;49.296;6.900;2022-08-21T01:51:21;20.40;55.80
66568;DHT22;53422;49.296;6.900;2022-08-21T01:53:47;20.40;55.80
66568;DHT22;53422;49.296;6.900;2022-08-21T01:56:14;20.40;55.90
66568;DHT22;53422;49.296;6.900;2022-08-21T01:58:41;20.40;55.80
66568;DHT22;53422;49.296;6.900;2022-08-21T02:01:07;20.40;55.90
66568;DHT22;53422;49.296;6.900;2022-08-21T02:03:33;20.30;56.00
66568;DHT22;53422;49.296;6.900;2022-08-21T02:05:58;20.30;55.90
66568;DHT22;53422;49.296;6.900;2022-08-21T02:08:24;20.30;56.00
66568;DHT22;53422;49.296;6.900;2022-08-21T02:10:51;20.30;56.10
66568;DHT22;53422;49.296;6.900;2022-08-21T02:13:17;20.20;56.10
66568;DHT22;53422;49.296;6.900;2022-08-21T02:15:44;20.20;56.10
66568;DHT22;53422;49.296;6.900;2022-08-21T02:18:10;20.20;56.10
66568;DHT22;53422;49.296;6.900;2022-08-21T02:20:39;20.20;56.10
66568;DHT22;53422;49.296;6.900;2022-08-21T02:23:07;20.20;56.50
66568;DHT22;53422;49.296;6.900;2022-08-21T02:25:33;20.20;57.30
66568;DHT22;53422;49.296;6.900;2022-08-21T02:28:02;20.20;56.20
66568;DHT22;53422;49.296;6.900;2022-08-21T02:30:40;20.10;56.30
66568;DHT22;53422;49.296;6.900;2022-08-21T02:33:06;20.10;56.40
66568;DHT22;53422;49.296;6.900;2022-08-21T02:35:32;20.10;56.40
66568;DHT22;53422;49.296;6.900;2022-08-21T02:38:04;20.10;56.30
66568;DHT22;53422;49.296;6.900;2022-08-21T02:40:35;20.10;56.50
66568;DHT22;53422;49.296;6.900;2022-08-21T02:43:03;20.00;56.40
66568;DHT22;53422;49.296;6.900;2022-08-21T02:45:29;20.00;56.40
66568;DHT22;53422;49.296;6.900;2022-08-21T02:47:58;20.00;56.40
66568;DHT22;53422;49.296;6.900;2022-08-21T02:50:27;20.00;56.50
66568;DHT22;53422;49.296;6.900;2022-08-21T02:52:53;20.00;56.50
66568;DHT22;53422;49.296;6.900;2022-08-21T02:55:20;20.00;56.50
66568;DHT22;53422;49.296;6.900;2022-08-21T02:57:46;19.90;56.50
66568;DHT22;53422;49.296;6.900;2022-08-21T03:00:13;19.90;56.40
66568;DHT22;53422;49.296;6.900;2022-08-21T03:02:40;19.90;56.60
66568;DHT22;53422;49.296;6.900;2022-08-21T03:05:08;19.90;56.60
66568;DHT22;53422;49.296;6.900;2022-08-21T03:07:34;19.90;56.60
66568;DHT22;53422;49.296;6.900;2022-08-21T03:10:00;19.90;56.70
66568;DHT22;53422;49.296;6.900;2022-08-21T03:12:26;19.90;56.60
66568;DHT22;53422;49.296;6.900;2022-08-21T03:14:51;19.80;56.70
66568;DHT22;53422;49.296;6.900;2022-08-21T03:17:17;19.90;56.60
66568;DHT22;53422;49.296;6.900;2022-08-21T03:19:42;19.80;56.80
66568;DHT22;53422;49.296;6.900;2022-08-21T03:22:08;19.80;56.80
66568;DHT22;53422;49.296;6.900;2022-08-21T03:24:34;19.80;56.80
66568;DHT22;53422;49.296;6.900;2022-08-21T03:26:59;19.80;56.90
66568;DHT22;53422;49.296;6.900;2022-08-21T03:29:25;19.80;57.00
66568;DHT22;53422;49.296;6.900;2022-08-21T03:31:51;19.70;56.90
66568;DHT22;53422;49.296;6.900;2022-08-21T03:34:19;19.70;56.90
66568;DHT22;53422;49.296;6.900;2022-08-21T03:36:45;19.70;56.80
66568;DHT22;53422;49.296;6.900;2022-08-21T03:39:11;19.70;57.00
66568;DHT22;53422;49.296;6.900;2022-08-21T03:41:36;19.70;57.00
66568;DHT22;53422;49.296;6.900;2022-08-21T03:44:02;19.70;57.00
66568;DHT22;53422;49.296;6.900;2022-08-21T03:46:28;19.70;57.00
66568;DHT22;53422;49.296;6.900;2022-08-21T03:48:53;19.60;57.10
66568;DHT22;53422;49.296;6.900;2022-08-21T03:51:20;19.60;57.00
66568;DHT22;53422;49.296;6.900;2022-08-21T03:53:45;19.60;57.00
66568;DHT22;53422;49.296;6.900;2022-08-21T03:56:11;19.60;57.10
66568;DHT22;53422;49.296;6.900;2022-08-21T03:58:37;19.60;57.20
66568;DHT22;53422;49.296;6.900;2022-08-21T04:01:04;19.60;57.20
66568;DHT22;53422;49.296;6.900;2022-08-21T04:03:32;19.60;57.30
66568;DHT22;53422;49.296;6.900;2022-08-21T04:05:58;19.60;57.30
66568;DHT22;53422;49.296;6.900;2022-08-21T04:08:24;19.60;57.20
66568;DHT22;53422;49.296;6.900;2022-08-21T04:10:53;19.50;57.10
66568;DHT22;53422;49.296;6.900;2022-08-21T04:13:20;19.50;57.10
66568;DHT22;53422;49.296;6.900;2022-08-21T04:15:46;19.50;57.10
66568;DHT22;53422;49.296;6.900;2022-08-21T04:18:12;19.50;57.10
66568;DHT22;53422;49.296;6.900;2022-08-21T04:20:39;19.50;57.20
66568;DHT22;53422;49.296;6.900;2022-08-21T04:23:06;19.40;57.30
66568;DHT22;53422;49.296;6.900;2022-08-21T04:25:32;19.50;57.30
66568;DHT22;53422;49.296;6.900;2022-08-21T04:27:57;19.40;57.40
66568;DHT22;53422;49.296;6.900;2022-08-21T04:30:24;19.40;57.40
66568;DHT22;53422;49.296;6.900;2022-08-21T04:32:50;19.40;57.50
66568;DHT22;53422;49.296;6.900;2022-08-21T04:35:18;19.40;57.70
66568;DHT22;53422;49.296;6.900;2022-08-21T04:37:44;19.40;57.60
66568;DHT22;53422;49.296;6.900;2022-08-21T04:40:12;19.40;57.60
66568;DHT22;53422;49.296;6.900;2022-08-21T04:42:57;19.40;57.70
66568;DHT22;53422;49.296;6.900;2022-08-21T04:45:36;19.30;57.60
66568;DHT22;53422;49.296;6.900;2022-08-21T04:48:05;19.30;57.50
66568;DHT22;53422;49.296;6.900;2022-08-21T04:50:57;19.30;57.60
66568;DHT22;53422;49.296;6.900;2022-08-21T04:53:33;19.30;57.70
66568;DHT22;53422;49.296;6.900;2022-08-21T04:56:04;19.30;57.80
66568;DHT22;53422;49.296;6.900;2022-08-21T04:58:30;19.30;57.80
66568;DHT22;53422;49.296;6.900;2022-08-21T05:01:00;19.20;57.60
66568;DHT22;53422;49.296;6.900;2022-08-21T05:03:26;19.30;57.90
66568;DHT22;53422;49.296;6.900;2022-08-21T05:05:52;19.30;58.00
66568;DHT22;53422;49.296;6.900;2022-08-21T05:08:19;19.30;58.00
66568;DHT22;53422;49.296;6.900;2022-08-21T05:10:46;19.20;58.10
66568;DHT22;53422;49.296;6.900;2022-08-21T05:13:13;19.20;58.30
66568;DHT22;53422;49.296;6.900;2022-08-21T05:15:39;19.20;58.20
66568;DHT22;53422;49.296;6.900;2022-08-21T05:18:05;19.20;58.30
66568;DHT22;53422;49.296;6.900;2022-08-21T05:20:32;19.20;58.10
66568;DHT22;53422;49.296;6.900;2022-08-21T05:23:00;19.20;58.10
66568;DHT22;53422;49.296;6.900;2022-08-21T05:25:26;19.20;58.30
66568;DHT22;53422;49.296;6.900;2022-08-21T05:27:52;19.20;58.20
66568;DHT22;53422;49.296;6.900;2022-08-21T05:30:19;19.20;58.20
66568;DHT22;53422;49.296;6.900;2022-08-21T05:32:46;19.20;58.30
66568;DHT22;53422;49.296;6.900;2022-08-21T05:35:12;19.20;58.30
66568;DHT22;53422;49.296;6.900;2022-08-21T05:37:38;19.20;58.40
66568;DHT22;53422;49.296;6.900;2022-08-21T05:40:05;19.20;58.50
66568;DHT22;53422;49.296;6.900;2022-08-21T05:42:31;19.20;58.60
66568;DHT22;53422;49.296;6.900;2022-08-21T05:44:57;19.20;58.50
66568;DHT22;53422;49.296;6.900;2022-08-21T05:47:22;19.20;58.50
66568;DHT22;53422;49.296;6.900;2022-08-21T05:49:48;19.20;58.50
66568;DHT22;53422;49.296;6.900;2022-08-21T05:52:21;19.20;58.60
66568;DHT22;53422;49.296;6.900;2022-08-21T05:54:47;19.30;58.70
66568;DHT22;53422;49.296;6.900;2022-08-21T05:57:13;19.30;58.60
66568;DHT22;53422;49.296;6.900;2022-08-21T05:59:39;19.30;58.60
66568;DHT22;53422;49.296;6.900;2022-08-21T06:02:05;19.30;58.70
66568;DHT22;53422;49.296;6.900;2022-08-21T06:04:35;19.30;58.70
66568;DHT22;53422;49.296;6.900;2022-08-21T06:07:01;19.30;58.80
66568;DHT22;53422;49.296;6.900;2022-08-21T06:09:27;19.30;58.80
66568;DHT22;53422;49.296;6.900;2022-08-21T06:11:52;19.30;58.60
66568;DHT22;53422;49.296;6.900;2022-08-21T06:14:18;19.30;58.60
66568;DHT22;53422;49.296;6.900;2022-08-21T06:16:43;19.30;58.80
66568;DHT22;53422;49.296;6.900;2022-08-21T06:19:09;19.40;58.90
66568;DHT22;53422;49.296;6.900;2022-08-21T06:21:35;19.30;58.70
66568;DHT22;53422;49.296;6.900;2022-08-21T06:24:00;19.40;59.00
66568;DHT22;53422;49.296;6.900;2022-08-21T06:26:26;19.40;58.70
66568;DHT22;53422;49.296;6.900;2022-08-21T06:28:53;19.40;58.90
66568;DHT22;53422;49.296;6.900;2022-08-21T06:31:24;19.50;58.80
66568;DHT22;53422;49.296;6.900;2022-08-21T06:33:50;19.40;58.90
66568;DHT22;53422;49.296;6.900;2022-08-21T06:36:16;19.50;58.80
66568;DHT22;53422;49.296;6.900;2022-08-21T06:38:42;19.50;58.70
66568;DHT22;53422;49.296;6.900;2022-08-21T06:41:08;19.50;58.60
66568;DHT22;53422;49.296;6.900;2022-08-21T06:43:33;19.50;58.60
66568;DHT22;53422;49.296;6.900;2022-08-21T06:45:59;19.50;58.80
66568;DHT22;53422;49.296;6.900;2022-08-21T06:48:25;19.50;58.90
66568;DHT22;53422;49.296;6.900;2022-08-21T06:50:51;19.50;59.00
66568;DHT22;53422;49.296;6.900;2022-08-21T06:53:19;19.50;59.00
66568;DHT22;53422;49.296;6.900;2022-08-21T06:55:45;19.60;59.10
66568;DHT22;53422;49.296;6.900;2022-08-21T06:58:12;19.60;58.80
66568;DHT22;53422;49.296;6.900;2022-08-21T07:00:43;19.60;58.80
66568;DHT22;53422;49.296;6.900;2022-08-21T07:05:45;19.60;60.00
66568;DHT22;53422;49.296;6.900;2022-08-21T07:08:10;19.60;59.00
66568;DHT22;53422;49.296;6.900;2022-08-21T07:10:36;19.70;59.00
66568;DHT22;53422;49.296;6.900;2022-08-21T07:13:01;19.70;59.00
66568;DHT22;53422;49.296;6.900;2022-08-21T07:15:29;19.80;59.20
66568;DHT22;53422;49.296;6.900;2022-08-21T07:17:54;19.80;59.30
66568;DHT22;53422;49.296;6.900;2022-08-21T07:20:20;19.80;59.30
66568;DHT22;53422;49.296;6.900;2022-08-21T07:22:46;19.90;59.50
66568;DHT22;53422;49.296;6.900;2022-08-21T07:25:12;19.90;59.40
66568;DHT22;53422;49.296;6.900;2022-08-21T07:27:37;19.90;59.30
66568;DHT22;53422;49.296;6.900;2022-08-21T07:30:04;19.90;59.10
66568;DHT22;53422;49.296;6.900;2022-08-21T07:32:30;20.00;60.10
66568;DHT22;53422;49.296;6.900;2022-08-21T07:34:55;20.00;59.70
66568;DHT22;53422;49.296;6.900;2022-08-21T07:37:21;20.00;59.80
66568;DHT22;53422;49.296;6.900;2022-08-21T07:39:46;20.10;59.50
66568;DHT22;53422;49.296;6.900;2022-08-21T07:42:15;20.20;59.40
66568;DHT22;53422;49.296;6.900;2022-08-21T07:44:41;20.30;59.70
66568;DHT22;53422;49.296;6.900;2022-08-21T07:47:06;20.40;59.30
66568;DHT22;53422;49.296;6.900;2022-08-21T07:49:32;20.50;59.20
66568;DHT22;53422;49.296;6.900;2022-08-21T07:51:57;20.60;59.10
66568;DHT22;53422;49.296;6.900;2022-08-21T07:54:23;20.70;59.80
66568;DHT22;53422;49.296;6.900;2022-08-21T07:56:48;20.90;59.10
66568;DHT22;53422;49.296;6.900;2022-08-21T07:59:14;21.00;58.60
66568;DHT22;53422;49.296;6.900;2022-08-21T08:01:40;21.20;58.20
66568;DHT22;53422;49.296;6.900;2022-08-21T08:04:05;21.40;57.60
66568;DHT22;53422;49.296;6.900;2022-08-21T08:06:31;21.40;56.80
66568;DHT22;53422;49.296;6.900;2022-08-21T08:08:57;21.50;57.70
66568;DHT22;53422;49.296;6.900;2022-08-21T08:11:22;21.70;57.90
66568;DHT22;53422;49.296;6.900;2022-08-21T08:13:50;21.80;58.70
66568;DHT22;53422;49.296;6.900;2022-08-21T08:16:16;21.90;58.90
66568;DHT22;53422;49.296;6.900;2022-08-21T08:18:42;22.00;58.00
66568;DHT22;53422;49.296;6.900;2022-08-21T08:21:10;22.20;57.90
66568;DHT22;53422;49.296;6.900;2022-08-21T08:23:36;22.30;59.70
66568;DHT22;53422;49.296;6.900;2022-08-21T08:26:02;22.50;56.80
66568;DHT22;53422;49.296;6.900;2022-08-21T08:28:28;22.70;57.10
66568;DHT22;53422;49.296;6.900;2022-08-21T08:30:55;22.80;55.60
66568;DHT22;53422;49.296;6.900;2022-08-21T08:33:21;23.00;55.00
66568;DHT22;53422;49.296;6.900;2022-08-21T08:35:49;23.20;56.10
66568;DHT22;53422;49.296;6.900;2022-08-21T08:38:17;23.30;60.50
66568;DHT22;53422;49.296;6.900;2022-08-21T08:40:55;23.50;54.50
66568;DHT22;53422;49.296;6.900;2022-08-21T08:43:26;23.50;59.60
66568;DHT22;53422;49.296;6.900;2022-08-21T08:45:53;23.70;56.00
66568;DHT22;53422;49.296;6.900;2022-08-21T08:51:46;24.10;51.20
66568;DHT22;53422;49.296;6.900;2022-08-21T08:54:17;24.20;55.30
66568;DHT22;53422;49.296;6.900;2022-08-21T08:56:44;24.30;56.20
66568;DHT22;53422;49.296;6.900;2022-08-21T08:59:21;24.40;56.70
66568;DHT22;53422;49.296;6.900;2022-08-21T09:01:48;24.50;53.80
66568;DHT22;53422;49.296;6.900;2022-08-21T09:04:21;24.60;53.90
66568;DHT22;53422;49.296;6.900;2022-08-21T09:07:01;24.80;49.40
66568;DHT22;53422;49.296;6.900;2022-08-21T09:09:40;24.90;50.60
66568;DHT22;53422;49.296;6.900;2022-08-21T09:15:23;25.30;45.40
66568;DHT22;53422;49.296;6.900;2022-08-21T09:26:14;25.70;45.80
66568;DHT22;53422;49.296;6.900;2022-08-21T09:28:41;25.70;45.00
66568;DHT22;53422;49.296;6.900;2022-08-21T09:31:10;25.70;44.60
66568;DHT22;53422;49.296;6.900;2022-08-21T09:33:37;25.70;43.80
66568;DHT22;53422;49.296;6.900;2022-08-21T09:36:03;25.50;43.80
66568;DHT22;53422;49.296;6.900;2022-08-21T09:38:35;25.00;42.60
66568;DHT22;53422;49.296;6.900;2022-08-21T09:41:08;25.10;43.80
66568;DHT22;53422;49.296;6.900;2022-08-21T09:43:35;25.30;44.60
66568;DHT22;53422;49.296;6.900;2022-08-21T09:46:19;25.90;44.40
66568;DHT22;53422;49.296;6.900;2022-08-21T09:48:48;26.00;44.10
66568;DHT22;53422;49.296;6.900;2022-08-21T09:51:20;26.00;44.00
66568;DHT22;53422;49.296;6.900;2022-08-21T09:53:52;26.00;43.60
66568;DHT22;53422;49.296;6.900;2022-08-21T09:56:29;26.30;43.70
66568;DHT22;53422;49.296;6.900;2022-08-21T09:59:16;26.00;41.50
66568;DHT22;53422;49.296;6.900;2022-08-21T10:01:45;26.00;42.20
66568;DHT22;53422;49.296;6.900;2022-08-21T10:04:11;26.00;40.80
66568;DHT22;53422;49.296;6.900;2022-08-21T10:06:38;26.00;41.10
66568;DHT22;53422;49.296;6.900;2022-08-21T10:09:16;26.40;42.60
66568;DHT22;53422;49.296;6.900;2022-08-21T10:12:32;26.70;42.00
66568;DHT22;53422;49.296;6.900;2022-08-21T10:15:19;26.60;41.10
66568;DHT22;53422;49.296;6.900;2022-08-21T10:23:40;26.40;39.10
66568;DHT22;53422;49.296;6.900;2022-08-21T10:37:13;27.00;38.20
66568;DHT22;53422;49.296;6.900;2022-08-21T10:40:10;26.70;37.30
66568;DHT22;53422;49.296;6.900;2022-08-21T10:42:47;26.50;35.60
66568;DHT22;53422;49.296;6.900;2022-08-21T10:47:55;27.30;38.20
66568;DHT22;53422;49.296;6.900;2022-08-21T10:55:33;27.30;35.90
66568;DHT22;53422;49.296;6.900;2022-08-21T11:00:53;27.30;36.50
66568;DHT22;53422;49.296;6.900;2022-08-21T11:03:33;27.60;37.90
66568;DHT22;53422;49.296;6.900;2022-08-21T11:06:15;27.20;34.70
66568;DHT22;53422;49.296;6.900;2022-08-21T11:08:49;27.10;36.90
66568;DHT22;53422;49.296;6.900;2022-08-21T11:13:59;27.20;37.00
66568;DHT22;53422;49.296;6.900;2022-08-21T11:16:48;27.60;35.90
66568;DHT22;53422;49.296;6.900;2022-08-21T11:19:35;27.30;34.30
66568;DHT22;53422;49.296;6.900;2022-08-21T11:22:27;27.20;35.00
66568;DHT22;53422;49.296;6.900;2022-08-21T11:29:59;27.50;35.50
66568;DHT22;53422;49.296;6.900;2022-08-21T11:33:00;28.10;35.40
66568;DHT22;53422;49.296;6.900;2022-08-21T11:38:39;28.30;35.10
66568;DHT22;53422;49.296;6.900;2022-08-21T11:41:36;28.40;34.80
66568;DHT22;53422;49.296;6.900;2022-08-21T11:46:49;28.50;34.50
66568;DHT22;53422;49.296;6.900;2022-08-21T11:54:52;28.80;33.50
66568;DHT22;53422;49.296;6.900;2022-08-21T11:57:25;28.80;35.40
66568;DHT22;53422;49.296;6.900;2022-08-21T11:59:54;28.90;33.10
66568;DHT22;53422;49.296;6.900;2022-08-21T12:02:23;28.70;31.50
66568;DHT22;53422;49.296;6.900;2022-08-21T12:04:56;28.60;32.50
66568;DHT22;53422;49.296;6.900;2022-08-21T12:07:42;27.90;31.50
66568;DHT22;53422;49.296;6.900;2022-08-21T12:10:16;28.30;33.00
66568;DHT22;53422;49.296;6.900;2022-08-21T12:12:44;28.40;31.50
66568;DHT22;53422;49.296;6.900;2022-08-21T12:15:15;28.20;32.00
66568;DHT22;53422;49.296;6.900;2022-08-21T12:17:55;28.20;32.00
66568;DHT22;53422;49.296;6.900;2022-08-21T12:23:01;28.90;32.90
66568;DHT22;53422;49.296;6.900;2022-08-21T12:25:42;28.70;32.60
66568;DHT22;53422;49.296;6.900;2022-08-21T12:28:11;28.60;32.50
66568;DHT22;53422;49.296;6.900;2022-08-21T12:30:41;28.80;32.00
66568;DHT22;53422;49.296;6.900;2022-08-21T12:33:22;28.70;32.20
66568;DHT22;53422;49.296;6.900;2022-08-21T12:35:50;28.40;31.50
66568;DHT22;53422;49.296;6.900;2022-08-21T12:38:27;28.00;31.50
66568;DHT22;53422;49.296;6.900;2022-08-21T12:40:58;27.90;32.60
66568;DHT22;53422;49.296;6.900;2022-08-21T12:43:33;27.80;33.40
66568;DHT22;53422;49.296;6.900;2022-08-21T12:46:00;28.00;32.70
66568;DHT22;53422;49.296;6.900;2022-08-21T12:48:52;28.40;32.10
66568;DHT22;53422;49.296;6.900;2022-08-21T12:51:26;28.90;32.80
66568;DHT22;53422;49.296;6.900;2022-08-21T12:53:57;29.10;32.30
66568;DHT22;53422;49.296;6.900;2022-08-21T12:56:29;29.40;31.60
66568;DHT22;53422;49.296;6.900;2022-08-21T12:59:00;29.40;31.70
66568;DHT22;53422;49.296;6.900;2022-08-21T13:04:17;29.50;31.80
66568;DHT22;53422;49.296;6.900;2022-08-21T13:06:49;29.30;31.90
66568;DHT22;53422;49.296;6.900;2022-08-21T13:09:19;29.40;32.90
66568;DHT22;53422;49.296;6.900;2022-08-21T13:11:47;29.50;32.10
66568;DHT22;53422;49.296;6.900;2022-08-21T13:14:32;29.20;31.80
66568;DHT22;53422;49.296;6.900;2022-08-21T13:17:00;28.70;32.10
66568;DHT22;53422;49.296;6.900;2022-08-21T13:19:28;28.50;33.00
66568;DHT22;53422;49.296;6.900;2022-08-21T13:21:55;28.90;32.50
66568;DHT22;53422;49.296;6.900;2022-08-21T13:24:24;28.70;31.90
66568;DHT22;53422;49.296;6.900;2022-08-21T13:26:50;28.40;33.20
66568;DHT22;53422;49.296;6.900;2022-08-21T13:29:20;28.60;32.80
66568;DHT22;53422;49.296;6.900;2022-08-21T13:31:53;28.60;31.80
66568;DHT22;53422;49.296;6.900;2022-08-21T13:34:22;28.50;33.10
66568;DHT22;53422;49.296;6.900;2022-08-21T13:36:52;28.80;32.90
66568;DHT22;53422;49.296;6.900;2022-08-21T13:39:19;28.80;32.20
66568;DHT22;53422;49.296;6.900;2022-08-21T13:41:48;29.00;32.00
66568;DHT22;53422;49.296;6.900;2022-08-21T13:44:17;29.20;31.90
66568;DHT22;53422;49.296;6.900;2022-08-21T13:46:44;29.00;31.20
66568;DHT22;53422;49.296;6.900;2022-08-21T13:49:10;28.80;31.50
66568;DHT22;53422;49.296;6.900;2022-08-21T13:51:39;28.90;31.80
66568;DHT22;53422;49.296;6.900;2022-08-21T13:56:51;29.60;31.40
66568;DHT22;53422;49.296;6.900;2022-08-21T13:59:34;29.80;30.50
66568;DHT22;53422;49.296;6.900;2022-08-21T14:02:15;29.90;31.50
66568;DHT22;53422;49.296;6.900;2022-08-21T14:07:31;29.90;30.30
66568;DHT22;53422;49.296;6.900;2022-08-21T14:10:04;29.80;30.70
66568;DHT22;53422;49.296;6.900;2022-08-21T14:12:43;30.00;30.20
66568;DHT22;53422;49.296;6.900;2022-08-21T14:15:13;30.00;30.90
66568;DHT22;53422;49.296;6.900;2022-08-21T14:17:40;29.70;30.40
66568;DHT22;53422;49.296;6.900;2022-08-21T14:20:10;29.00;30.20
66568;DHT22;53422;49.296;6.900;2022-08-21T14:22:44;28.50;30.80
66568;DHT22;53422;49.296;6.900;2022-08-21T14:28:07;29.10;31.50
66568;DHT22;53422;49.296;6.900;2022-08-21T14:30:38;29.30;31.40
66568;DHT22;53422;49.296;6.900;2022-08-21T14:33:09;29.20;31.50
66568;DHT22;53422;49.296;6.900;2022-08-21T14:35:35;29.40;31.50
66568;DHT22;53422;49.296;6.900;2022-08-21T14:38:01;29.80;31.40
66568;DHT22;53422;49.296;6.900;2022-08-21T14:40:27;29.90;31.40
66568;DHT22;53422;49.296;6.900;2022-08-21T14:42:53;29.90;31.00
66568;DHT22;53422;49.296;6.900;2022-08-21T14:45:25;30.00;30.90
66568;DHT22;53422;49.296;6.900;2022-08-21T14:47:52;30.00;31.70
66568;DHT22;53422;49.296;6.900;2022-08-21T14:50:18;30.10;32.90
66568;DHT22;53422;49.296;6.900;2022-08-21T14:52:45;30.00;32.20
66568;DHT22;53422;49.296;6.900;2022-08-21T14:55:12;30.00;32.20
66568;DHT22;53422;49.296;6.900;2022-08-21T14:57:41;29.90;31.50
66568;DHT22;53422;49.296;6.900;2022-08-21T15:00:09;29.90;32.50
66568;DHT22;53422;49.296;6.900;2022-08-21T15:02:35;29.90;33.10
66568;DHT22;53422;49.296;6.900;2022-08-21T15:05:01;29.80;31.20
66568;DHT22;53422;49.296;6.900;2022-08-21T15:07:27;29.80;33.80
66568;DHT22;53422;49.296;6.900;2022-08-21T15:09:52;29.70;33.10
66568;DHT22;53422;49.296;6.900;2022-08-21T15:12:18;29.70;31.60
66568;DHT22;53422;49.296;6.900;2022-08-21T15:14:44;29.70;33.30
66568;DHT22;53422;49.296;6.900;2022-08-21T15:17:10;29.70;31.80
66568;DHT22;53422;49.296;6.900;2022-08-21T15:19:36;29.60;32.10
66568;DHT22;53422;49.296;6.900;2022-08-21T15:22:02;29.60;32.60
66568;DHT22;53422;49.296;6.900;2022-08-21T15:24:29;29.50;33.30
66568;DHT22;53422;49.296;6.900;2022-08-21T15:26:55;29.50;33.70
66568;DHT22;53422;49.296;6.900;2022-08-21T15:29:21;29.40;32.80
66568;DHT22;53422;49.296;6.900;2022-08-21T15:32:18;29.30;32.50
66568;DHT22;53422;49.296;6.900;2022-08-21T15:34:44;29.00;32.20
66568;DHT22;53422;49.296;6.900;2022-08-21T15:37:10;29.10;32.50
66568;DHT22;53422;49.296;6.900;2022-08-21T15:39:36;29.00;32.30
66568;DHT22;53422;49.296;6.900;2022-08-21T15:42:02;28.90;32.30
66568;DHT22;53422;49.296;6.900;2022-08-21T15:44:29;28.90;31.90
66568;DHT22;53422;49.296;6.900;2022-08-21T15:46:55;28.80;32.80
66568;DHT22;53422;49.296;6.900;2022-08-21T15:49:22;28.70;32.60
66568;DHT22;53422;49.296;6.900;2022-08-21T15:51:48;28.60;31.50
66568;DHT22;53422;49.296;6.900;2022-08-21T15:54:14;28.60;32.50
66568;DHT22;53422;49.296;6.900;2022-08-21T15:56:42;28.50;33.40
66568;DHT22;53422;49.296;6.900;2022-08-21T15:59:17;28.50;33.20
66568;DHT22;53422;49.296;6.900;2022-08-21T16:01:44;28.40;33.20
66568;DHT22;53422;49.296;6.900;2022-08-21T16:04:10;28.40;32.70
66568;DHT22;53422;49.296;6.900;2022-08-21T16:06:40;28.40;33.10
66568;DHT22;53422;49.296;6.900;2022-08-21T16:09:06;28.20;33.40
66568;DHT22;53422;49.296;6.900;2022-08-21T16:11:32;28.10;33.20
66568;DHT22;53422;49.296;6.900;2022-08-21T16:13:57;28.00;32.90
66568;DHT22;53422;49.296;6.900;2022-08-21T16:16:24;28.00;32.90
66568;DHT22;53422;49.296;6.900;2022-08-21T16:18:51;28.00;33.10
66568;DHT22;53422;49.296;6.900;2022-08-21T16:21:17;27.90;32.50
66568;DHT22;53422;49.296;6.900;2022-08-21T16:23:42;27.90;32.90
66568;DHT22;53422;49.296;6.900;2022-08-21T16:26:10;27.80;32.40
66568;DHT22;53422;49.296;6.900;2022-08-21T16:28:38;27.80;32.50
66568;DHT22;53422;49.296;6.900;2022-08-21T16:31:04;27.80;34.20
66568;DHT22;53422;49.296;6.900;2022-08-21T16:33:39;27.70;33.40
66568;DHT22;53422;49.296;6.900;2022-08-21T16:36:07;27.70;33.70
66568;DHT22;53422;49.296;6.900;2022-08-21T16:38:34;27.60;33.40
66568;DHT22;53422;49.296;6.900;2022-08-21T16:41:03;27.60;32.80
66568;DHT22;53422;49.296;6.900;2022-08-21T16:43:29;27.60;32.90
66568;DHT22;53422;49.296;6.900;2022-08-21T16:45:57;27.50;33.50
66568;DHT22;53422;49.296;6.900;2022-08-21T16:48:23;27.50;34.00
66568;DHT22;53422;49.296;6.900;2022-08-21T16:50:49;27.40;33.70
66568;DHT22;53422;49.296;6.900;2022-08-21T16:53:15;27.40;34.20
66568;DHT22;53422;49.296;6.900;2022-08-21T16:55:41;27.30;33.60
66568;DHT22;53422;49.296;6.900;2022-08-21T16:58:11;27.30;34.00
66568;DHT22;53422;49.296;6.900;2022-08-21T17:00:39;27.20;33.70